Time;durP1;ratioP1;P1;durP2;ratioP2;P2;SDS_P1;SDS_P2;PMS_P1;PMS_P2;Temp;Humidity;BMP_temperature;BMP_pressure;BME280_temperature;BME280_humidity;BME280_pressure;Samples;Min_cycle;Max_cycle;Signal;HPM_P1;HPM_P2
2023/05/08 00:01:38;;;;;;;;;;;20.20;91.70;;;;;;10284853;28;784;-68
2023/05/08 00:06:33;;;;;;;;;;;20.30;91.70;;;;;;10284897;28;1902;-67
2023/05/08 00:11:28;;;;;;;;;;;20.30;91.80;;;;;;10284743;28;962;-67
2023/05/08 00:16:24;;;;;;;;;;;20.20;91.70;;;;;;10283918;28;1264;-67
2023/05/08 00:21:19;;;;;;;;;;;20.30;91.80;;;;;;10283882;28;871;-67
2023/05/08 00:26:15;;;;;;;;;;;20.20;91.70;;;;;;10285645;28;1980;-67
2023/05/08 00:31:10;;;;;;;;;;;20.30;91.80;;;;;;10291845;28;782;-68
2023/05/08 00:36:06;;;;;;;;;;;20.20;91.70;;;;;;10291976;28;881;-67
2023/05/08 00:41:01;;;;;;;;;;;20.20;91.70;;;;;;10291858;28;934;-67
2023/05/08 00:45:57;;;;;;;;;;;20.20;91.70;;;;;;10291271;28;1906;-67
2023/05/08 00:50:52;;;;;;;;;;;20.30;91.80;;;;;;10290347;28;1066;-67
2023/05/08 00:55:47;;;;;;;;;;;20.20;91.60;;;;;;10290544;28;797;-67
2023/05/08 01:00:43;;;;;;;;;;;20.30;91.80;;;;;;10290479;28;756;-67
2023/05/08 01:05:38;;;;;;;;;;;20.20;91.70;;;;;;10289562;28;1906;-67
2023/05/08 01:10:33;;;;;;;;;;;20.20;91.60;;;;;;10290878;28;863;-67
2023/05/08 01:15:29;;;;;;;;;;;20.20;91.50;;;;;;10289759;28;1362;-67
2023/05/08 01:20:24;;;;;;;;;;;20.20;91.60;;;;;;10289771;28;883;-67
2023/05/08 01:25:20;;;;;;;;;;;20.20;91.60;;;;;;10290074;28;1968;-67
2023/05/08 01:30:15;;;;;;;;;;;20.20;91.60;;;;;;10289178;28;858;-67
2023/05/08 01:35:11;;;;;;;;;;;20.20;91.50;;;;;;10289090;28;958;-67
2023/05/08 01:40:06;;;;;;;;;;;20.20;91.60;;;;;;10289752;28;905;-67
2023/05/08 01:45:01;;;;;;;;;;;20.20;91.60;;;;;;10289337;28;1958;-67
2023/05/08 01:49:57;;;;;;;;;;;20.20;91.70;;;;;;10288582;28;977;-67
2023/05/08 01:54:52;;;;;;;;;;;20.20;91.60;;;;;;10288919;28;764;-67
2023/05/08 01:59:47;;;;;;;;;;;20.10;91.60;;;;;;10288259;28;884;-67
2023/05/08 02:04:43;;;;;;;;;;;20.10;91.40;;;;;;10287976;28;1898;-67
2023/05/08 02:09:38;;;;;;;;;;;20.20;91.60;;;;;;10287845;28;874;-67
2023/05/08 02:14:33;;;;;;;;;;;20.20;91.60;;;;;;10288304;28;1192;-68
2023/05/08 02:19:29;;;;;;;;;;;20.10;91.40;;;;;;10285601;28;813;-67
2023/05/08 02:24:24;;;;;;;;;;;20.10;91.50;;;;;;10285939;28;1962;-67
2023/05/08 02:29:20;;;;;;;;;;;20.20;91.40;;;;;;10285845;28;766;-67
2023/05/08 02:34:15;;;;;;;;;;;20.10;91.50;;;;;;10284987;28;946;-68
2023/05/08 02:39:11;;;;;;;;;;;20.10;91.50;;;;;;10284328;28;885;-67
2023/05/08 02:44:06;;;;;;;;;;;20.10;91.70;;;;;;10284685;28;1915;-68
2023/05/08 02:49:01;;;;;;;;;;;20.10;91.70;;;;;;10284041;28;896;-68
2023/05/08 02:53:57;;;;;;;;;;;20.10;91.60;;;;;;10284499;28;758;-68
2023/05/08 02:58:52;;;;;;;;;;;20.10;91.60;;;;;;10284421;28;940;-67
2023/05/08 03:03:47;;;;;;;;;;;20.10;91.60;;;;;;10284059;28;1993;-68
2023/05/08 03:08:43;;;;;;;;;;;20.10;91.50;;;;;;10284670;28;854;-67
2023/05/08 03:13:38;;;;;;;;;;;20.10;91.50;;;;;;10283904;28;908;-67
2023/05/08 03:18:34;;;;;;;;;;;20.10;91.60;;;;;;10244308;28;1150572;-68
2023/05/08 03:23:29;;;;;;;;;;;20.10;91.50;;;;;;10286297;28;1985;-67
2023/05/08 03:28:25;;;;;;;;;;;20.00;91.50;;;;;;10284971;28;847;-67
2023/05/08 03:33:20;;;;;;;;;;;20.00;91.60;;;;;;10286119;28;936;-67
2023/05/08 03:38:16;;;;;;;;;;;20.00;91.50;;;;;;10284801;28;771;-67
2023/05/08 03:43:11;;;;;;;;;;;20.00;91.50;;;;;;10284087;28;1910;-68
2023/05/08 03:48:06;;;;;;;;;;;20.00;91.50;;;;;;10284546;28;780;-68
2023/05/08 03:53:02;;;;;;;;;;;20.10;91.60;;;;;;10284681;28;958;-67
2023/05/08 03:57:57;;;;;;;;;;;20.10;91.50;;;;;;10284985;28;784;-67
2023/05/08 04:02:53;;;;;;;;;;;20.00;91.50;;;;;;10289786;28;1956;-67
2023/05/08 04:07:48;;;;;;;;;;;20.10;91.40;;;;;;10292360;28;966;-68
2023/05/08 04:12:44;;;;;;;;;;;20.00;91.50;;;;;;10292303;28;849;-67
2023/05/08 04:17:39;;;;;;;;;;;20.00;91.60;;;;;;10292339;28;1298;-68
2023/05/08 04:22:37;;;;;;;;;;;20.00;91.60;;;;;;10293058;28;1910;-68
2023/05/08 04:27:32;;;;;;;;;;;20.00;91.40;;;;;;10292069;28;948;-67
2023/05/08 04:32:27;;;;;;;;;;;20.10;91.50;;;;;;10292201;28;876;-68
2023/05/08 04:37:23;;;;;;;;;;;20.10;91.40;;;;;;10291293;28;875;-68
2023/05/08 04:42:18;;;;;;;;;;;20.10;91.40;;;;;;10291256;28;1906;-67
2023/05/08 04:47:14;;;;;;;;;;;20.10;91.60;;;;;;10291081;28;790;-68
2023/05/08 04:52:09;;;;;;;;;;;20.10;91.60;;;;;;10290898;28;778;-67
2023/05/08 04:57:06;;;;;;;;;;;20.10;91.50;;;;;;10291286;28;880;-68
2023/05/08 05:02:01;;;;;;;;;;;20.10;91.60;;;;;;10289787;28;838;-67
2023/05/08 05:06:57;;;;;;;;;;;20.10;91.60;;;;;;10290906;28;1910;-67
2023/05/08 05:11:52;;;;;;;;;;;20.10;91.60;;;;;;10289589;28;761;-67
2023/05/08 05:16:47;;;;;;;;;;;20.10;91.60;;;;;;10290110;28;1216;-67
2023/05/08 05:21:43;;;;;;;;;;;20.10;91.50;;;;;;10290216;28;780;-67
2023/05/08 05:26:38;;;;;;;;;;;20.10;91.40;;;;;;10290079;28;1980;-68
2023/05/08 05:31:33;;;;;;;;;;;20.10;91.60;;;;;;10289940;28;841;-67
2023/05/08 05:36:29;;;;;;;;;;;20.10;91.50;;;;;;10289059;28;800;-67
2023/05/08 05:41:24;;;;;;;;;;;20.20;91.70;;;;;;10289593;28;794;-67
2023/05/08 05:46:20;;;;;;;;;;;20.20;91.50;;;;;;10288775;28;1910;-67
2023/05/08 05:51:15;;;;;;;;;;;20.20;91.60;;;;;;10287118;28;1067;-67
2023/05/08 05:56:11;;;;;;;;;;;20.20;91.60;;;;;;10288212;28;869;-67
2023/05/08 06:01:06;;;;;;;;;;;20.20;91.80;;;;;;10288216;28;912;-67
2023/05/08 06:06:01;;;;;;;;;;;20.20;91.70;;;;;;10288401;28;1973;-67
2023/05/08 06:10:57;;;;;;;;;;;20.20;91.70;;;;;;10287805;28;1047;-67
2023/05/08 06:15:55;;;;;;;;;;;20.20;91.70;;;;;;10287878;28;1344;-67
2023/05/08 06:20:50;;;;;;;;;;;20.20;91.70;;;;;;10287346;28;841;-67
2023/05/08 06:25:45;;;;;;;;;;;20.10;91.70;;;;;;10286235;28;1973;-68
2023/05/08 06:30:41;;;;;;;;;;;20.10;91.60;;;;;;10286828;28;892;-67
2023/05/08 06:35:36;;;;;;;;;;;20.20;91.90;;;;;;10286796;28;957;-69
2023/05/08 06:40:32;;;;;;;;;;;20.10;91.80;;;;;;10286568;28;765;-67
2023/05/08 06:45:27;;;;;;;;;;;20.20;91.80;;;;;;10285960;28;1890;-67
2023/05/08 06:50:22;;;;;;;;;;;20.20;91.80;;;;;;10286994;28;869;-68
2023/05/08 06:55:18;;;;;;;;;;;20.20;91.70;;;;;;10286171;28;872;-67
2023/05/08 07:00:13;;;;;;;;;;;20.20;91.80;;;;;;10286579;28;889;-67
2023/05/08 07:05:08;;;;;;;;;;;20.20;91.90;;;;;;10286426;28;1914;-67
2023/05/08 07:10:04;;;;;;;;;;;20.20;92.00;;;;;;10285639;28;876;-67
2023/05/08 07:14:59;;;;;;;;;;;20.20;91.90;;;;;;10285068;28;1417;-67
2023/05/08 07:19:55;;;;;;;;;;;20.20;92.00;;;;;;10285859;28;978;-67
2023/05/08 07:24:50;;;;;;;;;;;20.30;92.00;;;;;;10285623;28;1910;-73
2023/05/08 07:29:45;;;;;;;;;;;20.20;92.10;;;;;;10285047;28;731;-73
2023/05/08 07:34:41;;;;;;;;;;;20.30;92.00;;;;;;10267529;28;1566;-73
2023/05/08 07:39:36;;;;;;;;;;;20.20;92.00;;;;;;10285148;28;881;-73
2023/05/08 07:44:35;;;;;;;;;;;20.20;92.00;;;;;;10284616;28;1910;-73
2023/05/08 07:49:30;;;;;;;;;;;20.20;92.10;;;;;;10284560;28;774;-73
2023/05/08 07:54:25;;;;;;;;;;;20.30;92.00;;;;;;10284855;28;826;-72
2023/05/08 07:59:21;;;;;;;;;;;20.30;92.10;;;;;;10284350;28;905;-71
2023/05/08 08:04:16;;;;;;;;;;;20.20;92.10;;;;;;10283638;28;1961;-71
2023/05/08 08:09:11;;;;;;;;;;;20.20;92.10;;;;;;10284785;28;1522;-71
2023/05/08 08:14:07;;;;;;;;;;;20.20;92.10;;;;;;10283786;28;1006;-71
2023/05/08 08:19:02;;;;;;;;;;;20.20;92.20;;;;;;10283435;28;919;-71
2023/05/08 08:23:58;;;;;;;;;;;20.20;92.30;;;;;;10283869;28;1914;-72
2023/05/08 08:28:53;;;;;;;;;;;20.20;92.50;;;;;;10283614;28;1180;-74
2023/05/08 08:33:49;;;;;;;;;;;20.20;92.70;;;;;;10283746;28;906;-73
2023/05/08 08:38:44;;;;;;;;;;;20.20;92.60;;;;;;10284292;28;881;-73
2023/05/08 08:43:42;;;;;;;;;;;20.30;92.90;;;;;;10282925;28;1962;-72
2023/05/08 08:48:37;;;;;;;;;;;20.30;92.80;;;;;;10287687;28;866;-72
2023/05/08 08:53:32;;;;;;;;;;;20.20;92.70;;;;;;10291491;28;814;-72
2023/05/08 08:58:28;;;;;;;;;;;20.30;92.70;;;;;;10290701;28;768;-72
2023/05/08 09:03:23;;;;;;;;;;;20.20;92.50;;;;;;10291741;28;1965;-72
2023/05/08 09:08:19;;;;;;;;;;;20.30;92.60;;;;;;10290869;28;796;-73
2023/05/08 09:13:14;;;;;;;;;;;20.20;92.40;;;;;;10289807;28;872;-72
2023/05/08 09:18:10;;;;;;;;;;;20.20;92.50;;;;;;10289059;28;1232;-72
2023/05/08 09:23:05;;;;;;;;;;;20.20;92.40;;;;;;10289662;28;1907;-72
2023/05/08 09:28:00;;;;;;;;;;;20.30;92.40;;;;;;10289862;28;873;-74
2023/05/08 09:32:56;;;;;;;;;;;20.30;92.30;;;;;;10289354;28;857;-72
2023/05/08 09:37:51;;;;;;;;;;;20.30;92.30;;;;;;10289798;28;867;-72
2023/05/08 09:42:47;;;;;;;;;;;20.30;92.30;;;;;;10288882;28;1898;-72
2023/05/08 09:47:42;;;;;;;;;;;20.30;92.30;;;;;;10288687;28;852;-71
2023/05/08 09:52:38;;;;;;;;;;;20.30;92.30;;;;;;10288638;28;916;-67
2023/05/08 09:57:35;;;;;;;;;;;20.30;92.30;;;;;;10287683;28;817;-67
2023/05/08 10:02:30;;;;;;;;;;;20.30;92.40;;;;;;10288121;28;1959;-67
2023/05/08 10:07:25;;;;;;;;;;;20.40;92.60;;;;;;10288629;28;832;-67
2023/05/08 10:12:21;;;;;;;;;;;20.40;92.70;;;;;;10288971;28;848;-67
2023/05/08 10:17:16;;;;;;;;;;;20.40;92.80;;;;;;10288365;28;1463;-67
2023/05/08 10:22:11;;;;;;;;;;;20.30;92.70;;;;;;10287515;28;944;-66
2023/05/08 10:27:07;;;;;;;;;;;20.30;92.90;;;;;;10287203;28;1975;-66
2023/05/08 10:32:02;;;;;;;;;;;20.30;93.10;;;;;;10287151;28;1060;-67
2023/05/08 10:36:58;;;;;;;;;;;20.30;93.10;;;;;;10286886;28;871;-68
2023/05/08 10:41:53;;;;;;;;;;;20.30;93.30;;;;;;10286764;28;838;-67
2023/05/08 10:46:48;;;;;;;;;;;20.30;93.30;;;;;;10285829;28;1893;-71
2023/05/08 10:51:44;;;;;;;;;;;20.30;93.70;;;;;;10286795;28;845;-71
2023/05/08 10:56:39;;;;;;;;;;;20.30;93.60;;;;;;10286364;28;834;-71
2023/05/08 11:01:35;;;;;;;;;;;20.30;93.60;;;;;;10286977;28;782;-70
2023/05/08 11:06:31;;;;;;;;;;;20.30;93.60;;;;;;10285726;28;1894;-71
2023/05/08 11:11:26;;;;;;;;;;;20.30;93.50;;;;;;10286002;28;784;-71
2023/05/08 11:16:21;;;;;;;;;;;20.40;93.40;;;;;;10283419;28;1465;-71
2023/05/08 11:21:17;;;;;;;;;;;20.40;93.60;;;;;;10284521;28;900;-71
2023/05/08 11:26:12;;;;;;;;;;;20.30;93.30;;;;;;10285050;28;1973;-71
2023/05/08 11:31:07;;;;;;;;;;;20.40;93.50;;;;;;10285387;28;876;-71
2023/05/08 11:36:03;;;;;;;;;;;20.40;93.80;;;;;;10284878;28;864;-71
2023/05/08 11:40:58;;;;;;;;;;;20.30;93.40;;;;;;10285977;28;900;-71
2023/05/08 11:45:54;;;;;;;;;;;20.30;93.40;;;;;;10284302;28;1894;-71
2023/05/08 11:50:49;;;;;;;;;;;20.30;93.30;;;;;;10284481;28;929;-71
2023/05/08 11:55:45;;;;;;;;;;;20.30;93.40;;;;;;10285225;28;813;-71
2023/05/08 12:00:40;;;;;;;;;;;20.40;93.50;;;;;;10284312;28;884;-71
2023/05/08 12:05:36;;;;;;;;;;;20.40;93.50;;;;;;10284177;28;1906;-71
2023/05/08 12:10:31;;;;;;;;;;;20.40;93.40;;;;;;10232393;28;1790;-71
2023/05/08 12:15:26;;;;;;;;;;;20.40;93.40;;;;;;10226517;28;1775;-71
2023/05/08 12:20:22;;;;;;;;;;;20.40;93.40;;;;;;10218787;28;1720;-71
2023/05/08 12:25:17;;;;;;;;;;;20.40;93.50;;;;;;10231045;28;1910;-72
2023/05/08 12:30:12;;;;;;;;;;;20.40;93.30;;;;;;10219000;28;1558;-72
2023/05/08 12:35:08;;;;;;;;;;;20.40;93.30;;;;;;10210822;28;851;-71
2023/05/08 12:40:03;;;;;;;;;;;20.40;93.40;;;;;;10210626;28;890;-72
2023/05/08 12:44:58;;;;;;;;;;;20.40;93.40;;;;;;10209731;28;1968;-71
2023/05/08 12:49:54;;;;;;;;;;;20.40;93.40;;;;;;10209496;28;932;-72
2023/05/08 12:54:49;;;;;;;;;;;20.40;93.50;;;;;;10211229;28;836;-69
2023/05/08 12:59:44;;;;;;;;;;;20.40;93.40;;;;;;10209007;28;963;-70
2023/05/08 13:04:40;;;;;;;;;;;20.40;93.40;;;;;;10210454;28;1906;-70
2023/05/08 13:09:36;;;;;;;;;;;20.40;93.50;;;;;;10209460;28;764;-70
2023/05/08 13:14:31;;;;;;;;;;;20.40;93.50;;;;;;10209271;28;1152;-70
2023/05/08 13:19:26;;;;;;;;;;;20.40;93.60;;;;;;10208842;28;854;-69
2023/05/08 13:24:22;;;;;;;;;;;20.40;93.70;;;;;;10208620;28;1954;-70
2023/05/08 13:29:17;;;;;;;;;;;20.40;93.70;;;;;;10208883;28;797;-70
2023/05/08 13:34:13;;;;;;;;;;;20.40;93.70;;;;;;10208555;28;841;-69
2023/05/08 13:39:09;;;;;;;;;;;20.40;93.70;;;;;;10208037;28;1006;-69
2023/05/08 13:44:04;;;;;;;;;;;20.40;93.90;;;;;;10207826;28;1959;-69
2023/05/08 13:49:00;;;;;;;;;;;20.40;93.90;;;;;;10207792;28;933;-69
2023/05/08 13:53:55;;;;;;;;;;;20.40;93.90;;;;;;10207525;28;801;-69
2023/05/08 13:58:50;;;;;;;;;;;20.50;94.00;;;;;;10208447;28;917;-69
2023/05/08 14:03:46;;;;;;;;;;;20.50;94.00;;;;;;10207408;28;1902;-69
2023/05/08 14:08:41;;;;;;;;;;;20.40;93.90;;;;;;10207495;28;814;-69
2023/05/08 14:13:36;;;;;;;;;;;20.50;93.80;;;;;;10206981;28;932;-67
2023/05/08 14:18:32;;;;;;;;;;;20.40;94.00;;;;;;10208304;28;1150;-67
2023/05/08 14:23:27;;;;;;;;;;;20.40;94.30;;;;;;10206720;28;1981;-67
2023/05/08 14:28:22;;;;;;;;;;;20.40;94.00;;;;;;10206436;28;904;-67
2023/05/08 14:33:18;;;;;;;;;;;20.40;93.80;;;;;;10207584;28;828;-69
2023/05/08 14:38:13;;;;;;;;;;;20.40;93.80;;;;;;10206896;28;916;-68
2023/05/08 14:43:09;;;;;;;;;;;20.50;93.90;;;;;;10206422;28;1961;-69
2023/05/08 14:48:04;;;;;;;;;;;20.40;93.90;;;;;;10205778;28;851;-68
2023/05/08 14:53:00;;;;;;;;;;;20.40;93.90;;;;;;10205695;28;803;-69
2023/05/08 14:57:55;;;;;;;;;;;20.50;93.90;;;;;;10205484;28;1012;-69
2023/05/08 15:02:51;;;;;;;;;;;20.40;93.80;;;;;;10205207;28;1906;-69
2023/05/08 15:07:48;;;;;;;;;;;20.50;93.90;;;;;;10204952;28;889;-69
2023/05/08 15:12:44;;;;;;;;;;;20.50;93.90;;;;;;10205399;28;1163;-69
2023/05/08 15:17:40;;;;;;;;;;;20.50;93.90;;;;;;10205251;28;1185;-69
2023/05/08 15:22:35;;;;;;;;;;;20.50;94.00;;;;;;10204920;28;1978;-69
2023/05/08 15:27:31;;;;;;;;;;;20.50;93.80;;;;;;10204547;28;766;-69
2023/05/08 15:32:26;;;;;;;;;;;20.50;93.80;;;;;;10203800;28;851;-67
2023/05/08 15:37:22;;;;;;;;;;;20.50;93.80;;;;;;10204261;28;863;-69
2023/05/08 15:42:17;;;;;;;;;;;20.50;93.80;;;;;;10204032;28;1089;-69
2023/05/08 15:47:12;;;;;;;;;;;20.50;93.80;;;;;;10203875;28;1969;-69
2023/05/08 15:52:08;;;;;;;;;;;20.50;93.60;;;;;;10203938;28;857;-69
2023/05/08 15:57:03;;;;;;;;;;;20.50;93.70;;;;;;10207051;28;787;-69
2023/05/08 16:01:58;;;;;;;;;;;20.50;93.70;;;;;;10212076;28;921;-69
2023/05/08 16:06:55;;;;;;;;;;;20.50;93.60;;;;;;10212560;28;1967;-69
2023/05/08 16:11:50;;;;;;;;;;;20.50;93.50;;;;;;10212311;28;876;-69
2023/05/08 16:16:46;;;;;;;;;;;20.50;93.60;;;;;;10210869;28;1272;-69
2023/05/08 16:21:41;;;;;;;;;;;20.50;93.60;;;;;;10211990;28;908;-69
2023/05/08 16:26:36;;;;;;;;;;;20.50;93.60;;;;;;10211132;28;1914;-69
2023/05/08 16:31:32;;;;;;;;;;;20.50;93.60;;;;;;10211786;28;790;-69
2023/05/08 16:36:27;;;;;;;;;;;20.50;93.50;;;;;;10210258;28;886;-69
2023/05/08 16:41:22;;;;;;;;;;;20.50;93.60;;;;;;10210763;28;984;-69
2023/05/08 16:46:18;;;;;;;;;;;20.50;93.60;;;;;;10210295;28;1909;-69
2023/05/08 16:51:13;;;;;;;;;;;20.50;93.50;;;;;;10210846;28;782;-69
2023/05/08 16:56:09;;;;;;;;;;;20.50;93.60;;;;;;10211024;28;862;-69
2023/05/08 17:01:04;;;;;;;;;;;20.50;93.40;;;;;;10209848;28;776;-69
2023/05/08 17:05:59;;;;;;;;;;;20.50;93.40;;;;;;10210269;28;1902;-69
2023/05/08 17:10:55;;;;;;;;;;;20.50;93.40;;;;;;10208906;28;834;-69
2023/05/08 17:15:50;;;;;;;;;;;20.50;93.30;;;;;;10210095;28;1089;-69
2023/05/08 17:20:46;;;;;;;;;;;20.50;93.50;;;;;;10209108;28;884;-69
2023/05/08 17:25:41;;;;;;;;;;;20.50;93.50;;;;;;10209176;28;1973;-69
2023/05/08 17:30:36;;;;;;;;;;;20.50;93.40;;;;;;10208814;28;865;-69
2023/05/08 17:35:33;;;;;;;;;;;20.50;93.40;;;;;;10208422;28;836;-69
2023/05/08 17:40:28;;;;;;;;;;;20.50;93.50;;;;;;10209174;28;856;-69
2023/05/08 17:45:23;;;;;;;;;;;20.50;93.40;;;;;;10208877;28;1906;-69
2023/05/08 17:50:19;;;;;;;;;;;20.50;93.50;;;;;;10208059;28;845;-69
2023/05/08 17:55:14;;;;;;;;;;;20.50;93.40;;;;;;10207870;28;767;-69
2023/05/08 18:00:09;;;;;;;;;;;20.50;93.40;;;;;;10208399;28;793;-69
2023/05/08 18:05:05;;;;;;;;;;;20.50;93.40;;;;;;10207432;28;1910;-69
2023/05/08 18:10:00;;;;;;;;;;;20.50;93.40;;;;;;10207339;28;859;-69
2023/05/08 18:14:56;;;;;;;;;;;20.50;93.40;;;;;;10207901;28;1518;-69
2023/05/08 18:19:51;;;;;;;;;;;20.50;93.40;;;;;;10206830;28;804;-69
2023/05/08 18:24:48;;;;;;;;;;;20.50;93.30;;;;;;10207026;28;1977;-69
2023/05/08 18:29:44;;;;;;;;;;;20.50;93.40;;;;;;10207042;28;853;-69
2023/05/08 18:34:39;;;;;;;;;;;20.50;93.40;;;;;;10206885;28;885;-69
2023/05/08 18:39:35;;;;;;;;;;;20.50;93.50;;;;;;10206685;28;936;-69
2023/05/08 18:44:30;;;;;;;;;;;20.50;93.30;;;;;;10206203;28;1969;-69
2023/05/08 18:49:26;;;;;;;;;;;20.50;93.30;;;;;;10205802;28;794;-69
2023/05/08 18:54:25;;;;;;;;;;;20.50;93.40;;;;;;10206402;28;849;-69
2023/05/08 18:59:20;;;;;;;;;;;20.50;93.20;;;;;;10205428;28;975;-69
2023/05/08 19:04:16;;;;;;;;;;;20.50;93.20;;;;;;10205206;28;1969;-69
2023/05/08 19:09:11;;;;;;;;;;;20.50;93.30;;;;;;10205843;28;980;-69
2023/05/08 19:14:07;;;;;;;;;;;20.50;93.60;;;;;;10204672;28;1186;-69
2023/05/08 19:19:02;;;;;;;;;;;20.50;93.10;;;;;;10205729;28;809;-69
2023/05/08 19:23:58;;;;;;;;;;;20.60;93.20;;;;;;10204606;28;1977;-69
2023/05/08 19:28:53;;;;;;;;;;;20.50;93.10;;;;;;10205300;28;801;-69
2023/05/08 19:33:48;;;;;;;;;;;20.50;93.20;;;;;;10204817;28;850;-69
2023/05/08 19:38:44;;;;;;;;;;;20.50;93.30;;;;;;10204185;28;860;-69
2023/05/08 19:43:39;;;;;;;;;;;20.50;93.30;;;;;;10203578;28;1902;-69
2023/05/08 19:48:35;;;;;;;;;;;20.50;93.30;;;;;;10204618;28;1521;-69
2023/05/08 20:24:55;;;;;;;;;;;20.40;93.30;;;;;;9259668;22;3132;-71
2023/05/08 20:29:51;;;;;;;;;;;20.50;93.30;;;;;;10366522;28;825;-72
2023/05/08 20:34:46;;;;;;;;;;;20.40;93.30;;;;;;10366246;28;850;-72
2023/05/08 20:39:41;;;;;;;;;;;20.40;93.30;;;;;;10366157;28;837;-72
2023/05/08 20:44:37;;;;;;;;;;;20.40;93.30;;;;;;10370171;28;1965;-72
2023/05/08 20:49:32;;;;;;;;;;;20.40;93.20;;;;;;10373198;28;782;-72
2023/05/08 20:54:28;;;;;;;;;;;20.40;93.20;;;;;;10373029;28;762;-72
2023/05/08 20:59:23;;;;;;;;;;;20.40;93.20;;;;;;10373398;28;897;-72
2023/05/08 21:04:18;;;;;;;;;;;20.30;93.20;;;;;;10372543;28;1902;-72
2023/05/08 21:09:15;;;;;;;;;;;20.30;93.10;;;;;;10372353;28;951;-72
2023/05/08 21:14:10;;;;;;;;;;;20.30;93.10;;;;;;10372764;28;832;-72
2023/05/08 21:19:05;;;;;;;;;;;20.30;93.10;;;;;;10371968;28;874;-72
2023/05/08 21:24:01;;;;;;;;;;;20.30;93.10;;;;;;10371462;28;1951;-72
2023/05/08 21:28:57;;;;;;;;;;;20.40;93.10;;;;;;10371729;28;759;-72
2023/05/08 21:33:52;;;;;;;;;;;20.40;93.00;;;;;;10371433;28;855;-72
2023/05/08 21:38:48;;;;;;;;;;;20.40;93.00;;;;;;10371294;28;904;-72
2023/05/08 21:43:43;;;;;;;;;;;20.40;92.90;;;;;;10371556;28;1906;-72
2023/05/08 21:48:38;;;;;;;;;;;20.30;92.90;;;;;;10370259;28;861;-72
2023/05/08 21:53:34;;;;;;;;;;;20.40;93.00;;;;;;10371481;28;876;-72
2023/05/08 21:58:29;;;;;;;;;;;20.40;93.00;;;;;;10371147;28;1033;-72
2023/05/08 22:03:25;;;;;;;;;;;20.40;93.00;;;;;;10370835;28;1898;-72
2023/05/08 22:08:20;;;;;;;;;;;20.30;93.00;;;;;;10370021;28;848;-72
2023/05/08 22:13:16;;;;;;;;;;;20.30;92.90;;;;;;10370500;28;805;-72
2023/05/08 22:18:12;;;;;;;;;;;20.40;92.90;;;;;;10369637;28;849;-72
2023/05/08 22:23:07;;;;;;;;;;;20.30;92.90;;;;;;10369706;28;1968;-72
2023/05/08 22:28:02;;;;;;;;;;;20.30;92.90;;;;;;10368611;28;1380;-72
2023/05/08 22:32:58;;;;;;;;;;;20.40;92.90;;;;;;10368546;28;874;-72
2023/05/08 22:37:54;;;;;;;;;;;20.40;92.90;;;;;;10368941;28;902;-72
2023/05/08 22:42:50;;;;;;;;;;;20.30;92.90;;;;;;10368711;28;1910;-72
2023/05/08 22:47:45;;;;;;;;;;;20.30;92.80;;;;;;10369351;28;856;-72
2023/05/08 22:52:40;;;;;;;;;;;20.30;92.80;;;;;;10368370;28;869;-72
2023/05/08 22:57:36;;;;;;;;;;;20.30;92.80;;;;;;10368177;28;810;-72
2023/05/08 23:02:31;;;;;;;;;;;20.30;92.90;;;;;;10368598;28;880;-72
2023/05/08 23:07:27;;;;;;;;;;;20.30;92.90;;;;;;10367787;28;1964;-72
2023/05/08 23:12:22;;;;;;;;;;;20.30;92.90;;;;;;10367184;28;917;-72
2023/05/08 23:17:18;;;;;;;;;;;20.30;92.80;;;;;;10368080;28;860;-72
2023/05/08 23:22:13;;;;;;;;;;;20.30;92.80;;;;;;10367559;28;761;-72
2023/05/08 23:27:08;;;;;;;;;;;20.30;92.70;;;;;;10367277;28;1905;-72
2023/05/08 23:32:04;;;;;;;;;;;20.30;92.80;;;;;;10367641;28;838;-72
2023/05/08 23:36:59;;;;;;;;;;;20.30;92.70;;;;;;10366962;28;982;-72
2023/05/08 23:41:54;;;;;;;;;;;20.30;92.80;;;;;;10367376;28;768;-72
2023/05/08 23:46:50;;;;;;;;;;;20.40;92.80;;;;;;10366586;28;1972;-72
2023/05/08 23:51:45;;;;;;;;;;;20.30;92.80;;;;;;10366154;28;864;-72
2023/05/08 23:56:40;;;;;;;;;;;20.30;92.80;;;;;;10366455;28;774;-72
